Time;durP1;ratioP1;P1;durP2;ratioP2;P2;SDS_P1;SDS_P2;PMS_P1;PMS_P2;Temp;Humidity;BMP_temperature;BMP_pressure;BME280_temperature;BME280_humidity;BME280_pressure;Samples;Min_cycle;Max_cycle;Signal;HPM_P1;HPM_P2
2023/07/09 00:02:19;;;;;;;3.28;2.50;;;;;;;22.18;70.02;101600.75;5074297;28;20039;-82
2023/07/09 00:04:44;;;;;;;3.03;2.60;;;;;;;22.16;70.15;101597.31;5074124;28;20028;-81
2023/07/09 00:07:30;;;;;;;3.78;2.65;;;;;;;22.14;70.18;101600.03;5074062;28;20029;-82
2023/07/09 00:09:56;;;;;;;6.28;2.92;;;;;;;22.11;70.28;101600.22;5073710;28;20410;-82
2023/07/09 00:12:22;;;;;;;3.43;2.60;;;;;;;22.09;70.55;101604.72;5073272;28;20025;-82
2023/07/09 00:14:48;;;;;;;4.72;3.13;;;;;;;22.04;70.51;101606.72;5074015;28;20028;-81
2023/07/09 00:17:25;;;;;;;4.82;3.15;;;;;;;22.02;70.35;101608.59;5073742;28;20039;-82
2023/07/09 00:19:51;;;;;;;4.32;3.20;;;;;;;21.98;70.10;101613.19;5073468;28;20021;-82
2023/07/09 00:22:18;;;;;;;3.80;2.80;;;;;;;21.96;70.93;101612.41;5074110;28;20035;-82
2023/07/09 00:24:44;;;;;;;3.95;3.00;;;;;;;21.92;71.01;101610.88;5073976;28;20044;-82
2023/07/09 00:27:15;;;;;;;5.30;3.10;;;;;;;21.85;71.15;101615.63;5072468;28;20017;-82
2023/07/09 00:29:41;;;;;;;3.55;2.60;;;;;;;21.73;72.04;101619.72;5073921;28;20119;-82
2023/07/09 00:32:20;;;;;;;3.40;2.78;;;;;;;21.69;71.26;101612.03;5073593;28;20020;-82
2023/07/09 00:34:49;;;;;;;5.55;2.78;;;;;;;21.67;71.68;101613.91;5073103;28;20391;-82
2023/07/09 00:37:17;;;;;;;4.50;3.10;;;;;;;21.63;71.68;101610.53;5065167;28;20380;-82
2023/07/09 00:39:44;;;;;;;4.38;2.95;;;;;;;21.60;71.70;101610.72;5052889;28;20021;-79
2023/07/09 00:42:17;;;;;;;4.25;3.20;;;;;;;21.60;71.97;101618.63;5053205;28;20025;-79
2023/07/09 00:44:49;;;;;;;4.32;3.03;;;;;;;21.58;72.02;101623.09;5053313;28;20036;-79
2023/07/09 00:47:23;;;;;;;4.30;3.08;;;;;;;21.54;71.97;101616.25;5052603;28;20056;-79
2023/07/09 00:49:50;;;;;;;4.28;3.10;;;;;;;21.51;72.01;101617.28;5053436;28;20357;-79
2023/07/09 00:52:35;;;;;;;4.47;2.90;;;;;;;21.49;72.31;101618.28;5053099;28;20036;-79
2023/07/09 00:55:05;;;;;;;3.70;2.90;;;;;;;21.47;72.25;101622.78;5052510;28;20477;-79
2023/07/09 00:57:31;;;;;;;5.00;3.30;;;;;;;21.44;72.11;101616.72;5053643;28;20032;-79
2023/07/09 01:00:09;;;;;;;3.73;2.90;;;;;;;21.43;72.31;101622.91;5053263;28;20095;-80
2023/07/09 01:02:35;;;;;;;5.50;3.50;;;;;;;21.40;72.48;101620.41;5051944;28;20279;-80
2023/07/09 01:05:02;;;;;;;5.88;3.50;;;;;;;21.38;72.64;101613.50;5060677;28;20488;-80
2023/07/09 01:07:29;;;;;;;4.32;3.08;;;;;;;21.33;73.03;101613.75;5071850;28;20048;-80
2023/07/09 01:09:54;;;;;;;;;;;;;;;21.32;73.36;101613.81;5072372;28;20041;-80
2023/07/09 01:12:20;;;;;;;;;;;;;;;21.29;73.30;101614.81;5072851;28;19920;-80
2023/07/09 01:14:48;;;;;;;5.15;3.50;;;;;;;21.23;73.48;101612.47;5072721;28;20015;-80
2023/07/09 01:17:14;;;;;;;5.28;3.42;;;;;;;21.23;73.08;101617.75;5071821;28;20485;-79
2023/07/09 01:19:43;;;;;;;5.00;3.40;;;;;;;21.17;73.47;101611.00;5071135;28;20108;-80
2023/07/09 01:22:14;;;;;;;4.88;3.30;;;;;;;21.13;73.92;101599.72;5071793;28;20123;-80
2023/07/09 01:25:06;;;;;;;5.28;3.45;;;;;;;21.14;74.30;101611.13;5073259;28;20020;-80
2023/07/09 01:27:46;;;;;;;4.60;3.50;;;;;;;21.08;74.01;101609.63;5073212;28;20053;-80
2023/07/09 01:30:26;;;;;;;5.05;3.40;;;;;;;21.07;74.04;101615.00;5071912;28;20032;-80
2023/07/09 01:32:56;;;;;;;4.28;2.92;;;;;;;21.05;74.25;101619.47;5072499;28;20468;-80
2023/07/09 01:35:22;;;;;;;4.80;3.05;;;;;;;21.01;74.68;101613.50;5063951;28;20037;-80
2023/07/09 01:37:48;;;;;;;4.30;3.20;;;;;;;21.00;74.49;101616.22;5068821;28;20529;-80
2023/07/09 01:40:18;;;;;;;5.40;3.28;;;;;;;20.97;74.62;101622.47;5071916;28;20472;-80
2023/07/09 01:42:44;;;;;;;5.82;2.95;;;;;;;20.93;75.06;101627.06;5072552;28;20039;-80
2023/07/09 01:45:12;;;;;;;13.03;6.00;;;;;;;20.82;86.27;101629.31;5072059;28;20024;-80
2023/07/09 01:47:38;;;;;;;11.02;6.13;;;;;;;20.77;80.63;101626.91;5072633;28;20029;-80
2023/07/09 01:50:05;;;;;;;9.05;5.07;;;;;;;20.78;78.82;101628.63;5071958;28;20384;-80
2023/07/09 01:52:33;;;;;;;8.27;4.70;;;;;;;20.82;78.43;101631.97;5072951;28;20025;-80
2023/07/09 01:54:58;;;;;;;7.28;4.18;;;;;;;20.82;77.67;101638.13;5072507;28;20115;-80
2023/07/09 01:57:32;;;;;;;7.38;4.45;;;;;;;20.79;77.35;101640.88;5071219;28;20108;-80
2023/07/09 02:00:00;;;;;;;4.65;3.60;;;;;;;20.77;77.38;101639.25;5063301;28;20048;-80
2023/07/09 02:02:26;;;;;;;5.10;3.40;;;;;;;20.75;77.40;101646.38;5052394;28;20025;-81
2023/07/09 02:04:55;;;;;;;5.70;3.30;;;;;;;20.76;78.71;101645.44;5052155;28;20033;-81
2023/07/09 02:07:22;;;;;;;3.75;3.00;;;;;;;20.71;77.49;101643.00;5052136;28;20018;-80
2023/07/09 02:09:48;;;;;;;5.07;3.20;;;;;;;20.72;77.92;101643.84;5052142;28;20041;-81
2023/07/09 02:12:14;;;;;;;4.10;3.10;;;;;;;20.68;77.48;101645.75;5051381;28;20037;-80
2023/07/09 02:14:40;;;;;;;;;;;;;;;20.67;77.58;101646.69;5059183;28;20021;-81
2023/07/09 02:17:07;;;;;;;3.55;2.90;;;;;;;20.65;77.70;101641.50;5071631;28;20284;-81
2023/07/09 02:19:35;;;;;;;5.15;3.20;;;;;;;20.63;77.49;101647.75;5074698;28;20036;-81
2023/07/09 02:22:00;;;;;;;3.80;2.80;;;;;;;20.62;77.65;101649.53;5076017;28;20082;-80
2023/07/09 02:24:27;;;;;;;4.63;3.27;;;;;;;20.58;77.65;101641.84;5075495;28;20033;-80
2023/07/09 02:27:00;;;;;;;4.60;3.05;;;;;;;20.60;77.73;101654.00;5061062;28;20039;-80
2023/07/09 02:29:32;;;;;;;5.03;3.30;;;;;;;20.56;77.62;101649.78;5056031;28;20060;-81
2023/07/09 02:32:00;;;;;;;4.50;3.10;;;;;;;20.56;77.65;101641.03;5055954;28;20082;-81
2023/07/09 02:34:27;;;;;;;4.90;3.30;;;;;;;20.53;77.47;101639.41;5054929;28;20066;-81
2023/07/09 02:36:53;;;;;;;4.03;3.00;;;;;;;20.55;77.72;101636.69;5056184;28;20029;-80
2023/07/09 02:39:19;;;;;;;;;;;;;;;20.50;77.58;101639.53;5055353;28;20428;-81
2023/07/09 02:41:44;;;;;;;;;;;;;;;20.48;77.91;101644.88;5056540;28;19913;-81
2023/07/09 02:44:10;;;;;;;5.03;3.30;;;;;;;20.42;77.89;101636.38;5055924;28;19912;-81
2023/07/09 02:46:35;;;;;;;4.20;3.40;;;;;;;20.42;77.75;101637.22;5055437;28;20099;-81
2023/07/09 02:49:06;;;;;;;5.07;3.40;;;;;;;20.44;77.66;101639.78;5055884;28;20037;-80
2023/07/09 02:51:32;;;;;;;5.32;3.45;;;;;;;20.44;77.77;101645.06;5055413;28;20036;-81
2023/07/09 02:54:00;;;;;;;4.90;3.53;;;;;;;20.41;77.72;101646.06;5054866;28;20350;-81
2023/07/09 02:56:26;;;;;;;5.63;3.55;;;;;;;20.41;77.72;101647.84;5056487;28;20055;-80
2023/07/09 02:58:54;;;;;;;5.55;3.60;;;;;;;20.37;77.90;101639.22;5055218;28;20546;-80
2023/07/09 03:01:24;;;;;;;5.53;3.65;;;;;;;20.35;78.13;101639.28;5054190;28;20047;-80
2023/07/09 03:03:52;;;;;;;5.28;3.42;;;;;;;20.34;78.14;101639.34;5055675;28;20423;-80
2023/07/09 03:06:19;;;;;;;5.35;3.47;;;;;;;20.33;78.16;101637.63;5055053;28;20021;-80
2023/07/09 03:08:45;;;;;;;4.90;3.47;;;;;;;20.28;78.44;101639.59;5054008;28;20138;-81
2023/07/09 03:11:12;;;;;;;5.83;3.50;;;;;;;20.26;78.25;101636.22;5072289;28;20107;-81
2023/07/09 03:13:37;;;;;;;4.75;3.30;;;;;;;20.27;78.53;101637.88;5075748;28;20025;-80
2023/07/09 03:16:03;;;;;;;4.77;3.43;;;;;;;20.18;78.44;101629.47;5074670;28;20032;-81
2023/07/09 03:18:28;;;;;;;4.87;3.37;;;;;;;20.22;78.42;101638.09;5074696;28;20032;-81
2023/07/09 03:20:53;;;;;;;5.37;3.60;;;;;;;20.18;78.26;101634.75;5056153;28;20033;-80
2023/07/09 03:23:19;;;;;;;4.90;3.50;;;;;;;20.17;78.67;101637.44;5057274;28;20043;-80
2023/07/09 03:25:44;;;;;;;4.27;3.17;;;;;;;20.15;78.60;101634.88;5075024;28;20070;-81
2023/07/09 03:28:11;;;;;;;3.97;3.28;;;;;;;20.15;78.71;101644.56;5074227;28;20082;-82
2023/07/09 03:30:43;;;;;;;;;;;;;;;20.13;78.89;101635.84;5073996;28;20020;-81
2023/07/09 03:33:10;;;;;;;6.20;3.92;;;;;;;20.12;78.92;101640.28;5074896;28;19950;-81
2023/07/09 03:35:39;;;;;;;4.78;3.30;;;;;;;20.11;78.99;101638.56;5074049;28;20044;-82
2023/07/09 03:38:10;;;;;;;4.80;3.38;;;;;;;20.10;78.85;101639.50;5074880;28;20016;-81
2023/07/09 03:40:36;;;;;;;5.90;3.65;;;;;;;20.10;78.75;101638.66;5075242;28;20033;-82
2023/07/09 03:43:02;;;;;;;5.10;3.40;;;;;;;20.10;79.05;101639.50;5073900;28;20476;-81
2023/07/09 03:45:27;;;;;;;4.37;3.50;;;;;;;20.06;78.96;101628.22;5073842;28;20056;-81
2023/07/09 03:47:52;;;;;;;4.93;3.47;;;;;;;20.06;78.82;101633.50;5074761;28;20484;-81
2023/07/09 03:50:18;;;;;;;5.27;3.67;;;;;;;20.05;78.95;101637.06;5073884;28;20465;-81
2023/07/09 03:52:44;;;;;;;5.47;3.70;;;;;;;20.05;79.29;101630.91;5074133;28;20064;-81
2023/07/09 03:55:09;;;;;;;6.30;3.70;;;;;;;20.03;79.25;101632.78;5073867;28;20021;-81
2023/07/09 03:57:35;;;;;;;5.47;3.63;;;;;;;20.06;79.42;101636.13;5073552;28;20050;-81
2023/07/09 04:00:02;;;;;;;5.18;3.30;;;;;;;20.05;79.48;101626.53;5074615;28;20388;-81
2023/07/09 04:02:28;;;;;;;5.30;3.40;;;;;;;20.06;79.66;101636.13;5073947;28;20025;-81
2023/07/09 04:04:55;;;;;;;5.27;3.67;;;;;;;20.07;79.49;101636.97;5074067;28;20040;-81
2023/07/09 04:07:23;;;;;;;6.15;3.65;;;;;;;20.08;80.21;101638.69;5074111;28;20028;-81
2023/07/09 04:09:49;;;;;;;5.60;3.83;;;;;;;20.08;79.66;101638.69;5073918;28;20066;-81
2023/07/09 04:12:14;;;;;;;5.57;3.93;;;;;;;20.09;79.85;101637.78;5072994;28;20112;-81
2023/07/09 04:14:40;;;;;;;5.17;3.50;;;;;;;20.11;80.46;101630.66;5061692;28;20028;-81
2023/07/09 04:17:07;;;;;;;3.72;3.00;;;;;;;20.12;80.36;101635.03;5072332;28;20472;-81
2023/07/09 04:19:32;;;;;;;;;;;;;;;20.12;79.98;101635.03;5073721;28;20020;-81
2023/07/09 04:22:00;;;;;;;;;;;;;;;20.15;80.19;101634.88;5073773;28;20364;-81
2023/07/09 04:24:30;;;;;;;5.72;3.72;;;;;;;20.16;80.30;101639.22;5073603;28;20021;-81
2023/07/09 04:27:02;;;;;;;5.70;3.47;;;;;;;20.20;80.47;101639.97;5073017;28;20028;-81
2023/07/09 04:29:33;;;;;;;4.18;3.20;;;;;;;20.25;80.36;101645.03;5073441;28;20039;-81
2023/07/09 04:31:59;;;;;;;4.65;3.40;;;;;;;20.25;80.47;101632.69;5072936;28;20488;-81
2023/07/09 04:34:24;;;;;;;5.20;3.43;;;;;;;20.33;80.51;101642.91;5068868;22;20108;-81
2023/07/09 04:36:50;;;;;;;4.80;3.13;;;;;;;20.35;80.79;101639.28;5052842;28;20060;-81
2023/07/09 04:39:15;;;;;;;4.83;3.33;;;;;;;20.40;80.47;101646.97;5051514;28;20063;-81
2023/07/09 04:41:40;;;;;;;4.63;3.33;;;;;;;20.46;80.83;101644.09;5051019;28;20032;-80
2023/07/09 04:44:06;;;;;;;4.73;3.40;;;;;;;20.52;80.56;101643.81;5052585;28;20024;-80
2023/07/09 04:46:31;;;;;;;5.10;3.43;;;;;;;20.57;80.46;101640.13;5052542;28;20381;-81
2023/07/09 04:48:56;;;;;;;4.20;3.30;;;;;;;20.64;80.59;101642.41;5053135;28;20117;-81
2023/07/09 04:51:22;;;;;;;3.80;2.97;;;;;;;20.69;80.19;101639.56;5052788;28;20073;-81
2023/07/09 04:53:47;;;;;;;5.33;3.70;;;;;;;20.73;79.78;101635.84;5052477;28;20067;-81
2023/07/09 04:56:12;;;;;;;6.37;3.87;;;;;;;20.77;80.50;101637.47;5052817;28;20036;-81
2023/07/09 04:58:41;;;;;;;4.60;3.50;;;;;;;20.86;80.50;101637.94;5053239;28;20118;-81
2023/07/09 05:01:07;;;;;;;6.00;3.92;;;;;;;20.95;80.47;101643.66;5052340;28;20017;-81
2023/07/09 05:03:32;;;;;;;4.97;3.57;;;;;;;21.03;80.15;101643.31;5052993;28;20471;-81
2023/07/09 05:05:57;;;;;;;4.43;3.40;;;;;;;21.11;80.16;101630.59;5051295;28;20024;-81
2023/07/09 05:08:23;;;;;;;4.87;3.57;;;;;;;21.21;80.28;101632.81;5050926;28;20126;-81
2023/07/09 05:10:50;;;;;;;4.73;3.40;;;;;;;21.29;80.32;101635.94;5053151;28;20464;-81
2023/07/09 05:13:16;;;;;;;5.72;3.58;;;;;;;21.34;80.04;101636.56;5052507;28;20021;-81
2023/07/09 05:15:47;;;;;;;5.47;3.37;;;;;;;21.44;80.24;101637.00;5052298;28;20431;-81
2023/07/09 05:18:13;;;;;;;3.65;3.03;;;;;;;21.50;81.00;101641.97;5052848;28;20028;-83
2023/07/09 05:20:43;;;;;;;3.47;2.80;;;;;;;21.57;81.42;101645.16;5058085;22;20480;-80
2023/07/09 05:23:09;;;;;;;2.78;2.50;;;;;;;21.65;81.70;101640.38;5051650;28;20033;-80
2023/07/09 05:25:35;;;;;;;2.92;2.53;;;;;;;21.71;80.75;101640.09;5052759;28;20025;-80
2023/07/09 05:28:01;;;;;;;2.53;2.25;;;;;;;21.79;81.54;101641.50;5052405;28;20116;-80
2023/07/09 05:30:27;;;;;;;2.40;2.20;;;;;;;21.85;82.08;101635.88;5051689;28;20495;-81
2023/07/09 05:32:55;;;;;;;2.93;2.60;;;;;;;21.94;81.25;101646.00;5052620;28;20028;-81
2023/07/09 05:35:25;;;;;;;3.35;2.53;;;;;;;21.98;80.49;101636.13;5051696;28;20052;-80
2023/07/09 05:37:54;;;;;;;3.20;2.70;;;;;;;22.09;82.54;101644.38;5052823;28;20079;-80
2023/07/09 05:40:20;;;;;;;3.75;2.90;;;;;;;22.16;80.65;101634.34;5052316;28;20465;-81
2023/07/09 05:42:46;;;;;;;4.22;2.90;;;;;;;22.24;80.20;101637.44;5051983;28;20033;-81
2023/07/09 05:45:11;;;;;;;4.13;3.20;;;;;;;22.29;79.87;101630.09;5045904;28;20025;-80
2023/07/09 05:47:36;;;;;;;2.97;2.60;;;;;;;22.41;80.49;101630.41;5032853;28;20448;-81
2023/07/09 05:50:03;;;;;;;4.10;3.13;;;;;;;22.50;80.67;101640.53;5031725;28;20063;-80
2023/07/09 05:52:29;;;;;;;3.53;2.90;;;;;;;22.58;80.00;101646.25;5032172;28;20033;-82
2023/07/09 05:54:55;;;;;;;2.97;2.50;;;;;;;22.67;80.72;101642.28;5036522;28;20488;-81
2023/07/09 05:57:21;;;;;;;2.40;2.20;;;;;;;22.76;80.21;101643.53;5035952;28;20424;-82
2023/07/09 05:59:47;;;;;;;3.55;2.60;;;;;;;22.87;80.52;101649.09;5036847;28;20108;-83
2023/07/09 06:02:14;;;;;;;4.70;3.20;;;;;;;22.96;77.96;101639.81;5054286;28;20064;-84
2023/07/09 06:04:39;;;;;;;4.72;3.20;;;;;;;23.05;78.75;101646.41;5056123;28;20079;-82
2023/07/09 06:07:04;;;;;;;4.50;3.00;;;;;;;23.15;79.80;101644.94;5056453;28;20104;-88
2023/07/09 06:09:31;;;;;;;5.68;3.63;;;;;;;23.24;79.52;101641.81;5056999;28;20021;-88
2023/07/09 06:11:57;;;;;;;4.85;3.35;;;;;;;23.52;78.32;101650.84;5056887;28;20025;-88
2023/07/09 06:14:22;;;;;;;5.95;4.07;;;;;;;23.90;78.50;101637.13;5044322;28;20029;-88
2023/07/09 06:16:47;;;;;;;4.77;3.50;;;;;;;24.70;77.05;101643.88;5037062;28;20037;-87
2023/07/09 06:19:13;;;;;;;5.80;3.83;;;;;;;25.77;73.42;101645.00;5035975;28;20037;-89
2023/07/09 06:21:41;;;;;;;7.40;4.17;;;;;;;26.42;69.29;101647.75;5036983;28;20048;-80
2023/07/09 06:24:10;;;;;;;7.85;4.80;;;;;;;26.73;69.50;101662.41;5035846;28;20025;-80
2023/07/09 06:26:39;;;;;;;6.72;4.50;;;;;;;26.63;69.60;101662.22;5036610;28;20029;-81
2023/07/09 06:29:23;;;;;;;5.88;3.97;;;;;;;26.73;69.61;101659.75;5036330;28;20021;-81
2023/07/09 06:31:51;;;;;;;6.88;4.55;;;;;;;26.81;68.54;101643.22;5035288;28;20112;-80
2023/07/09 06:34:32;;;;;;;6.47;4.20;;;;;;;26.94;68.50;101654.72;5046577;28;20036;-86
2023/07/09 06:36:57;;;;;;;7.30;3.90;;;;;;;27.13;68.20;101650.72;5056097;28;20055;-86
2023/07/09 06:39:22;;;;;;;5.53;3.73;;;;;;;27.35;68.21;101649.97;5053921;28;20029;-86
2023/07/09 06:41:48;;;;;;;6.13;3.97;;;;;;;27.57;65.86;101651.94;5056237;28;20074;-85
2023/07/09 06:44:16;;;;;;;7.82;4.85;;;;;;;27.71;65.00;101650.03;5055783;28;20090;-86
2023/07/09 06:46:53;;;;;;;6.82;4.43;;;;;;;27.85;65.59;101639.16;5055506;28;20029;-86
2023/07/09 06:49:24;;;;;;;8.75;5.25;;;;;;;28.04;63.81;101643.06;5055601;28;20111;-86
2023/07/09 06:51:53;;;;;;;8.10;5.18;;;;;;;28.15;64.43;101651.13;5055836;28;20082;-85
2023/07/09 06:54:31;;;;;;;7.15;4.50;;;;;;;28.22;64.84;101642.66;5054834;28;20064;-87
2023/07/09 06:56:56;;;;;;;6.75;4.30;;;;;;;28.43;63.60;101656.97;5043756;28;20100;-86
2023/07/09 06:59:22;;;;;;;;;;;;;;;28.50;63.96;101660.84;5036902;28;20381;-85
2023/07/09 07:01:47;;;;;;;7.73;5.07;;;;;;;28.49;63.63;101648.47;5036611;28;20335;-82
2023/07/09 07:04:12;;;;;;;6.75;4.43;;;;;;;28.55;63.74;101651.66;5049038;28;20504;-85
2023/07/09 07:06:50;;;;;;;7.85;4.50;;;;;;;28.63;62.96;101662.56;5039439;28;20064;-90
2023/07/09 07:09:15;;;;;;;9.43;5.00;;;;;;;28.67;63.38;101656.00;5035195;28;20021;-85
2023/07/09 07:14:05;;;;;;;9.70;5.65;;;;;;;28.74;61.81;101661.75;5107178;22;19920;-83
2023/07/09 07:16:31;;;;;;;;;;;;;;;28.75;62.66;101664.28;5095366;28;20411;-82
2023/07/09 07:18:57;;;;;;;10.60;5.53;;;;;;;28.80;62.19;101667.44;5095280;28;19931;-82
2023/07/09 07:21:23;;;;;;;7.55;5.00;;;;;;;28.88;62.27;101663.28;5094437;28;20020;-82
2023/07/09 07:23:48;;;;;;;;;;;;;;;29.02;62.66;101659.50;5095506;28;20395;-82
2023/07/09 07:26:16;;;;;;;9.60;5.80;;;;;;;29.18;61.73;101667.09;5095054;28;19919;-82
2023/07/09 07:28:41;;;;;;;9.10;4.93;;;;;;;29.35;59.61;101665.75;5094399;28;20016;-82
2023/07/09 07:31:08;;;;;;;;;;;;;;;29.42;60.89;101673.16;5146021;22;20064;-82
2023/07/09 07:33:34;;;;;;;6.45;4.20;;;;;;;29.54;60.94;101659.72;5074992;28;19917;-83
2023/07/09 07:35:59;;;;;;;;;;;;;;;29.63;59.98;101663.47;5074645;28;20063;-82
2023/07/09 07:38:25;;;;;;;8.63;4.50;;;;;;;29.63;59.42;101664.28;5074409;28;19916;-83
2023/07/09 07:40:50;;;;;;;;;;;;;;;29.71;58.10;101656.50;5075026;28;20294;-83
2023/07/09 07:43:15;;;;;;;9.23;5.13;;;;;;;29.72;56.38;101658.16;5073645;28;19912;-82
2023/07/09 07:45:41;;;;;;;;;;;;;;;29.75;58.58;101657.09;5075085;28;20373;-83
2023/07/09 07:48:09;;;;;;;6.80;4.60;;;;;;;29.84;58.67;101658.09;5074553;28;20086;-82
2023/07/09 07:50:35;;;;;;;6.75;4.13;;;;;;;29.96;58.77;101656.25;5073852;28;20461;-83
2023/07/09 07:53:01;;;;;;;5.82;3.80;;;;;;;30.13;58.44;101662.84;5074571;28;20108;-83
2023/07/09 07:55:26;;;;;;;;;;;;;;;30.28;58.74;101661.53;5074307;28;20115;-83
2023/07/09 07:58:14;;;;;;;4.60;3.40;;;;;;;30.43;59.00;101658.47;5073781;28;19912;-83
2023/07/09 08:00:40;;;;;;;4.18;3.10;;;;;;;30.62;57.52;101663.09;5066168;28;20032;-82
2023/07/09 08:03:06;;;;;;;3.97;3.25;;;;;;;30.65;52.70;101669.00;5073119;28;20854;-82
2023/07/09 08:05:31;;;;;;;;;;;;;;;30.65;52.04;101660.97;5074460;28;20024;-82
2023/07/09 08:07:56;;;;;;;4.95;3.70;;;;;;;30.68;51.55;101659.00;5074169;28;19913;-81
2023/07/09 08:10:22;;;;;;;;;;;;;;;30.65;54.55;101657.47;5073506;28;20028;-81
2023/07/09 08:12:47;;;;;;;;;;;;;;;30.76;55.76;101651.13;5074394;28;19935;-82
2023/07/09 08:15:16;;;;;;;5.10;3.47;;;;;;;30.88;55.36;101655.41;5074025;28;20007;-82
2023/07/09 08:17:41;;;;;;;4.40;3.38;;;;;;;31.01;55.46;101648.94;5073052;28;20710;-81
2023/07/09 08:20:07;;;;;;;4.30;2.97;;;;;;;31.13;54.56;101650.53;5073891;28;20052;-82
2023/07/09 08:22:33;;;;;;;4.40;2.90;;;;;;;31.17;53.91;101651.97;5073161;28;20036;-82
2023/07/09 08:24:58;;;;;;;4.90;3.00;;;;;;;31.20;47.45;101651.66;5073117;28;20032;-82
2023/07/09 08:27:23;;;;;;;4.57;3.03;;;;;;;31.22;49.55;101655.06;5073700;28;20035;-82
2023/07/09 08:29:49;;;;;;;3.17;2.70;;;;;;;31.28;52.88;101645.63;5073904;28;20071;-82
2023/07/09 08:32:14;;;;;;;2.80;2.50;;;;;;;31.37;51.31;101650.13;5072612;28;20441;-81
2023/07/09 08:34:41;;;;;;;3.65;2.63;;;;;;;31.46;53.12;101648.44;5073732;28;20060;-82
2023/07/09 08:37:09;;;;;;;3.35;2.50;;;;;;;31.54;52.66;101645.88;5073561;28;20074;-82
2023/07/09 08:39:35;;;;;;;2.90;2.38;;;;;;;31.58;53.42;101639.25;5072747;28;20107;-82
2023/07/09 08:42:08;;;;;;;2.40;2.20;;;;;;;31.71;52.92;101640.81;5073434;28;20111;-82
2023/07/09 08:44:45;;;;;;;2.30;2.10;;;;;;;31.79;52.26;101645.47;5073395;28;20029;-82
2023/07/09 08:47:22;;;;;;;2.42;2.22;;;;;;;31.79;51.25;101643.63;5072448;28;20032;-82
2023/07/09 08:49:55;;;;;;;2.42;2.15;;;;;;;31.83;52.69;101639.69;5073397;28;20106;-82
2023/07/09 08:52:29;;;;;;;3.17;2.38;;;;;;;31.83;49.09;101638.81;5072467;28;20020;-82
2023/07/09 08:54:57;;;;;;;2.70;2.50;;;;;;;31.88;51.12;101645.44;5073037;28;20050;-82
2023/07/09 08:57:26;;;;;;;2.50;2.30;;;;;;;31.99;50.12;101655.19;5072962;28;20047;-82
2023/07/09 09:00:02;;;;;;;2.30;2.10;;;;;;;32.11;49.20;101655.00;5072489;28;20025;-82
2023/07/09 09:02:41;;;;;;;2.63;2.15;;;;;;;32.19;50.78;101647.91;5071684;28;20102;-88
2023/07/09 09:05:08;;;;;;;2.35;2.15;;;;;;;32.25;44.44;101646.53;5072886;28;20020;-85
2023/07/09 09:07:44;;;;;;;3.65;2.50;;;;;;;32.25;48.35;101637.59;5070131;28;20046;-83
2023/07/09 09:10:18;;;;;;;2.83;2.47;;;;;;;32.31;47.48;101632.47;5053033;28;20083;-84
2023/07/09 09:13:04;;;;;;;2.78;2.40;;;;;;;32.37;45.35;101639.09;5052985;28;20040;-83
2023/07/09 09:15:30;;;;;;;2.55;2.35;;;;;;;32.36;45.83;101631.22;5052301;28;20191;-83
2023/07/09 09:18:14;;;;;;;3.13;2.30;;;;;;;32.45;49.36;101639.19;5052863;28;20077;-83
2023/07/09 09:20:40;;;;;;;2.78;2.10;;;;;;;32.56;47.83;101631.94;5051029;28;20458;-83
2023/07/09 09:23:06;;;;;;;2.50;2.30;;;;;;;32.64;48.19;101634.75;5052556;28;20032;-83
2023/07/09 09:25:34;;;;;;;2.20;2.00;;;;;;;32.74;48.71;101637.34;5053304;28;20104;-82
2023/07/09 09:28:00;;;;;;;2.22;2.03;;;;;;;32.88;49.09;101642.25;5053875;28;20032;-82
2023/07/09 09:30:29;;;;;;;2.92;2.20;;;;;;;32.99;44.50;101632.28;5052533;28;20032;-83
2023/07/09 09:33:00;;;;;;;2.58;2.38;;;;;;;33.03;48.56;101636.38;5053264;28;20072;-83
2023/07/09 09:35:37;;;;;;;2.30;2.10;;;;;;;33.14;46.67;101621.81;5054923;28;20107;-83
2023/07/09 09:38:11;;;;;;;2.20;2.00;;;;;;;33.25;48.81;101624.28;5072776;28;20021;-83
2023/07/09 09:40:37;;;;;;;4.38;2.78;;;;;;;33.27;42.74;101616.91;5072588;28;20099;-83
2023/07/09 09:43:13;;;;;;;3.22;2.70;;;;;;;33.29;46.69;101612.22;5071971;28;20031;-83
2023/07/09 09:45:39;;;;;;;2.50;2.30;;;;;;;33.40;47.21;101608.47;5072799;28;20028;-83
2023/07/09 09:48:14;;;;;;;2.33;2.13;;;;;;;33.50;47.63;101606.53;5072717;28;20034;-83
2023/07/09 09:50:40;;;;;;;2.40;2.20;;;;;;;33.54;47.15;101610.59;5071803;28;20126;-83
2023/07/09 09:53:08;;;;;;;2.50;2.30;;;;;;;33.69;47.02;101615.41;5072566;28;20028;-83
2023/07/09 09:55:34;;;;;;;2.85;2.35;;;;;;;33.75;46.75;101601.31;5072064;28;20032;-84
2023/07/09 09:58:02;;;;;;;8.48;4.55;;;;;;;33.59;43.25;101590.47;5072603;28;20031;-83
2023/07/09 10:00:31;;;;;;;5.82;3.83;;;;;;;33.62;44.32;101593.69;5072391;28;20028;-83
2023/07/09 10:02:59;;;;;;;4.13;3.25;;;;;;;33.76;44.63;101591.41;5069959;28;20028;-84
2023/07/09 10:05:59;;;;;;;4.05;3.17;;;;;;;33.91;44.67;101592.53;5072569;28;20048;-83
2023/07/09 10:08:44;;;;;;;4.32;2.95;;;;;;;34.05;44.39;101592.94;5028679;28;20381;-83
2023/07/09 10:11:21;;;;;;;5.88;4.07;;;;;;;33.97;38.51;101602.66;5071412;28;20032;-84
2023/07/09 10:13:48;;;;;;;9.55;4.95;;;;;;;33.71;41.55;101594.59;5072369;28;20032;-84
2023/07/09 10:16:43;;;;;;;6.35;4.30;;;;;;;33.85;43.03;101598.53;5072110;28;20081;-83
2023/07/09 10:19:49;;;;;;;5.10;3.85;;;;;;;34.02;43.10;101588.72;5070166;28;20377;-84
2023/07/09 10:22:24;;;;;;;4.53;3.40;;;;;;;34.27;43.51;101603.13;5038040;28;20160;-83
2023/07/09 10:25:01;;;;;;;4.97;3.45;;;;;;;34.42;42.60;101605.25;5071238;28;20032;-83
2023/07/09 10:27:43;;;;;;;3.83;3.10;;;;;;;34.59;42.22;101611.53;5071866;28;20396;-84
2023/07/09 10:30:33;;;;;;;2.78;2.53;;;;;;;34.82;42.86;101617.13;5062482;28;20491;-84
2023/07/09 10:33:02;;;;;;;2.65;2.45;;;;;;;34.95;43.03;101616.72;5062817;28;20476;-84
2023/07/09 10:35:33;;;;;;;2.40;2.20;;;;;;;35.07;42.31;101618.03;5071517;28;20028;-84
2023/07/09 10:38:49;;;;;;;2.30;2.10;;;;;;;35.19;42.55;101617.72;5071561;28;20115;-84
2023/07/09 10:41:17;;;;;;;2.15;1.98;;;;;;;35.35;42.92;101616.91;5076029;28;20120;-84
2023/07/09 10:44:13;;;;;;;1.98;1.88;;;;;;;35.55;41.00;101610.16;5077403;28;20028;-84
2023/07/09 10:46:43;;;;;;;3.00;2.20;;;;;;;35.62;40.29;101623.81;5074903;28;20025;-84
2023/07/09 10:49:14;;;;;;;2.30;2.10;;;;;;;35.71;41.25;101617.38;5063632;28;20028;-83
2023/07/09 10:51:44;;;;;;;2.38;2.15;;;;;;;35.84;41.77;101613.31;5074943;28;20389;-82
2023/07/09 10:54:17;;;;;;;2.67;2.47;;;;;;;35.84;40.94;101606.03;5075307;28;20487;-84
2023/07/09 10:56:47;;;;;;;3.05;2.50;;;;;;;35.83;40.92;101606.22;5072397;22;20057;-83
2023/07/09 10:59:26;;;;;;;3.22;2.85;;;;;;;35.75;40.57;101600.84;5048923;28;20035;-84
2023/07/09 11:02:00;;;;;;;3.03;2.72;;;;;;;35.76;40.92;101597.97;5047244;28;20024;-83
2023/07/09 11:05:03;;;;;;;2.97;2.60;;;;;;;35.87;40.76;101594.91;5046914;28;20033;-83
2023/07/09 11:07:36;;;;;;;4.65;2.80;;;;;;;35.95;41.32;101598.63;5035987;28;20033;-83
2023/07/09 11:10:05;;;;;;;3.42;2.30;;;;;;;35.99;40.94;101586.47;5048676;28;20020;-83
2023/07/09 11:12:42;;;;;;;2.50;2.30;;;;;;;36.00;40.49;101596.25;5046237;28;20024;-83
2023/07/09 11:15:16;;;;;;;2.80;2.53;;;;;;;35.90;37.74;101593.69;5046498;28;20048;-83
2023/07/09 11:17:46;;;;;;;2.42;2.22;;;;;;;35.86;41.36;101597.78;5048851;28;20022;-83
2023/07/09 11:20:41;;;;;;;2.78;2.58;;;;;;;35.92;41.25;101597.06;5041791;28;20038;-83
2023/07/09 11:23:19;;;;;;;2.25;2.05;;;;;;;36.01;41.16;101608.75;5046227;28;20024;-83
2023/07/09 11:25:46;;;;;;;2.00;1.90;;;;;;;36.01;41.02;101616.84;5047728;28;20036;-85
2023/07/09 11:28:13;;;;;;;2.10;2.00;;;;;;;36.03;41.43;101617.47;5045307;28;20025;-84
2023/07/09 11:31:06;;;;;;;2.10;2.00;;;;;;;35.98;39.56;101618.00;5050575;28;20021;-84
2023/07/09 11:36:28;;;;;;;2.10;1.90;;;;;;;35.87;41.41;101610.25;5038239;28;20040;-84
2023/07/09 11:39:02;;;;;;;2.20;1.98;;;;;;;35.80;41.57;101604.72;5050098;28;20025;-84
2023/07/09 11:45:30;;;;;;;2.20;2.00;;;;;;;35.79;41.45;101615.69;5014264;28;20120;-83
2023/07/09 11:54:44;;;;;;;1.70;1.60;;;;;;;35.56;41.96;101624.47;4959551;28;20089;-84
2023/07/09 11:57:34;;;;;;;1.50;1.40;;;;;;;35.48;41.42;101632.59;4950540;28;20043;-85